sensor_id;sensor_type;location;lat;lon;timestamp;temperature;humidity
13694;DHT22;6919;52.344;14.518;2023-03-29T00:00:58;0.70;99.90
13694;DHT22;6919;52.344;14.518;2023-03-29T00:03:27;0.70;99.90
13694;DHT22;6919;52.344;14.518;2023-03-29T00:06:00;0.60;99.90
13694;DHT22;6919;52.344;14.518;2023-03-29T00:08:31;0.60;99.90
13694;DHT22;6919;52.344;14.518;2023-03-29T00:11:00;0.60;99.90
13694;DHT22;6919;52.344;14.518;2023-03-29T00:13:29;0.60;99.90
13694;DHT22;6919;52.344;14.518;2023-03-29T00:15:57;0.70;99.90
13694;DHT22;6919;52.344;14.518;2023-03-29T00:18:25;0.60;99.90
13694;DHT22;6919;52.344;14.518;2023-03-29T00:20:54;0.50;99.90
13694;DHT22;6919;52.344;14.518;2023-03-29T00:23:24;0.50;99.90
13694;DHT22;6919;52.344;14.518;2023-03-29T00:25:53;0.40;99.90
13694;DHT22;6919;52.344;14.518;2023-03-29T00:28:22;0.40;99.90
13694;DHT22;6919;52.344;14.518;2023-03-29T00:30:51;0.30;99.90
13694;DHT22;6919;52.344;14.518;2023-03-29T00:33:19;0.30;99.90
13694;DHT22;6919;52.344;14.518;2023-03-29T00:35:48;0.20;99.90
13694;DHT22;6919;52.344;14.518;2023-03-29T00:38:19;0.20;99.90
13694;DHT22;6919;52.344;14.518;2023-03-29T00:40:48;0.10;99.90
13694;DHT22;6919;52.344;14.518;2023-03-29T00:43:17;0.00;99.90
13694;DHT22;6919;52.344;14.518;2023-03-29T00:45:45;0.00;99.90
13694;DHT22;6919;52.344;14.518;2023-03-29T00:48:16;0.00;99.90
13694;DHT22;6919;52.344;14.518;2023-03-29T00:50:50;0.00;99.90
13694;DHT22;6919;52.344;14.518;2023-03-29T00:53:26;0.00;99.90
13694;DHT22;6919;52.344;14.518;2023-03-29T00:56:04;0.00;99.90
13694;DHT22;6919;52.344;14.518;2023-03-29T00:58:41;0.00;99.90
13694;DHT22;6919;52.344;14.518;2023-03-29T01:01:17;0.00;99.90
13694;DHT22;6919;52.344;14.518;2023-03-29T01:03:55;-0.10;99.90
13694;DHT22;6919;52.344;14.518;2023-03-29T01:06:29;-0.10;99.90
13694;DHT22;6919;52.344;14.518;2023-03-29T01:09:04;-0.10;99.90
13694;DHT22;6919;52.344;14.518;2023-03-29T01:11:40;0.10;99.90
13694;DHT22;6919;52.344;14.518;2023-03-29T01:14:17;0.50;99.90
13694;DHT22;6919;52.344;14.518;2023-03-29T01:16:49;0.90;99.90
13694;DHT22;6919;52.344;14.518;2023-03-29T01:19:21;0.70;99.90
13694;DHT22;6919;52.344;14.518;2023-03-29T01:21:58;0.50;99.90
13694;DHT22;6919;52.344;14.518;2023-03-29T01:24:51;0.50;99.90
13694;DHT22;6919;52.344;14.518;2023-03-29T01:27:50;0.60;99.90
13694;DHT22;6919;52.344;14.518;2023-03-29T01:30:27;0.40;99.90
13694;DHT22;6919;52.344;14.518;2023-03-29T01:33:01;0.40;99.90
13694;DHT22;6919;52.344;14.518;2023-03-29T01:35:37;0.60;99.90
13694;DHT22;6919;52.344;14.518;2023-03-29T01:38:14;0.50;99.90
13694;DHT22;6919;52.344;14.518;2023-03-29T01:40:47;0.50;99.90
13694;DHT22;6919;52.344;14.518;2023-03-29T01:43:23;0.20;99.90
13694;DHT22;6919;52.344;14.518;2023-03-29T01:46:00;0.00;99.90
13694;DHT22;6919;52.344;14.518;2023-03-29T01:48:36;0.00;99.90
13694;DHT22;6919;52.344;14.518;2023-03-29T01:51:15;-0.40;99.90
13694;DHT22;6919;52.344;14.518;2023-03-29T01:53:53;-0.20;99.90
13694;DHT22;6919;52.344;14.518;2023-03-29T01:56:27;-0.30;99.90
13694;DHT22;6919;52.344;14.518;2023-03-29T01:59:07;-0.30;99.90
13694;DHT22;6919;52.344;14.518;2023-03-29T02:01:42;-0.30;99.90
13694;DHT22;6919;52.344;14.518;2023-03-29T02:04:17;-0.30;99.90
13694;DHT22;6919;52.344;14.518;2023-03-29T02:06:50;-0.40;99.90
13694;DHT22;6919;52.344;14.518;2023-03-29T02:09:22;-0.10;99.90
13694;DHT22;6919;52.344;14.518;2023-03-29T02:11:51;0.20;99.90
13694;DHT22;6919;52.344;14.518;2023-03-29T02:14:24;0.10;99.90
13694;DHT22;6919;52.344;14.518;2023-03-29T02:16:53;0.10;99.90
13694;DHT22;6919;52.344;14.518;2023-03-29T02:19:22;0.10;99.90
13694;DHT22;6919;52.344;14.518;2023-03-29T02:21:58;0.00;99.90
13694;DHT22;6919;52.344;14.518;2023-03-29T02:24:32;0.00;99.90
13694;DHT22;6919;52.344;14.518;2023-03-29T02:27:03;0.00;99.90
13694;DHT22;6919;52.344;14.518;2023-03-29T02:29:33;0.00;99.90
13694;DHT22;6919;52.344;14.518;2023-03-29T02:32:04;0.10;99.90
13694;DHT22;6919;52.344;14.518;2023-03-29T02:34:43;0.20;99.90
13694;DHT22;6919;52.344;14.518;2023-03-29T02:37:18;0.00;99.90
13694;DHT22;6919;52.344;14.518;2023-03-29T02:39:48;-0.20;99.90
13694;DHT22;6919;52.344;14.518;2023-03-29T02:42:19;-0.30;99.90
13694;DHT22;6919;52.344;14.518;2023-03-29T02:44:53;0.10;99.90
13694;DHT22;6919;52.344;14.518;2023-03-29T02:47:29;0.10;99.90
13694;DHT22;6919;52.344;14.518;2023-03-29T02:50:00;-0.10;99.90
13694;DHT22;6919;52.344;14.518;2023-03-29T02:52:33;-0.10;99.90
13694;DHT22;6919;52.344;14.518;2023-03-29T02:55:06;-0.20;99.90
13694;DHT22;6919;52.344;14.518;2023-03-29T02:57:40;0.00;99.90
13694;DHT22;6919;52.344;14.518;2023-03-29T03:00:12;0.30;99.90
13694;DHT22;6919;52.344;14.518;2023-03-29T03:02:46;0.30;99.90
13694;DHT22;6919;52.344;14.518;2023-03-29T03:05:16;0.30;99.90
13694;DHT22;6919;52.344;14.518;2023-03-29T03:07:45;0.30;99.90
13694;DHT22;6919;52.344;14.518;2023-03-29T03:10:13;0.30;99.90
13694;DHT22;6919;52.344;14.518;2023-03-29T03:12:41;0.10;99.90
13694;DHT22;6919;52.344;14.518;2023-03-29T03:15:11;0.10;99.90
13694;DHT22;6919;52.344;14.518;2023-03-29T03:17:40;0.20;99.90
13694;DHT22;6919;52.344;14.518;2023-03-29T03:20:10;0.20;99.90
13694;DHT22;6919;52.344;14.518;2023-03-29T03:22:40;0.10;99.90
13694;DHT22;6919;52.344;14.518;2023-03-29T03:25:09;-0.10;99.90
13694;DHT22;6919;52.344;14.518;2023-03-29T03:27:38;0.00;99.90
13694;DHT22;6919;52.344;14.518;2023-03-29T03:30:08;0.20;99.90
13694;DHT22;6919;52.344;14.518;2023-03-29T03:32:38;0.10;99.90
13694;DHT22;6919;52.344;14.518;2023-03-29T03:35:09;0.10;99.90
13694;DHT22;6919;52.344;14.518;2023-03-29T03:37:38;0.10;99.90
13694;DHT22;6919;52.344;14.518;2023-03-29T03:40:08;0.00;99.90
13694;DHT22;6919;52.344;14.518;2023-03-29T03:42:39;0.10;99.90
13694;DHT22;6919;52.344;14.518;2023-03-29T03:45:09;0.00;99.90
13694;DHT22;6919;52.344;14.518;2023-03-29T03:47:39;-0.10;99.90
13694;DHT22;6919;52.344;14.518;2023-03-29T03:50:08;-0.10;99.90
13694;DHT22;6919;52.344;14.518;2023-03-29T03:52:37;-0.20;99.90
13694;DHT22;6919;52.344;14.518;2023-03-29T03:55:05;-0.10;99.90
13694;DHT22;6919;52.344;14.518;2023-03-29T03:57:36;0.00;99.90
13694;DHT22;6919;52.344;14.518;2023-03-29T04:00:05;-0.30;99.90
13694;DHT22;6919;52.344;14.518;2023-03-29T04:02:47;-0.20;99.90
13694;DHT22;6919;52.344;14.518;2023-03-29T04:05:16;0.00;99.90
13694;DHT22;6919;52.344;14.518;2023-03-29T04:07:45;-0.10;99.90
13694;DHT22;6919;52.344;14.518;2023-03-29T04:10:14;-0.30;99.90
13694;DHT22;6919;52.344;14.518;2023-03-29T04:12:42;-0.10;99.90
13694;DHT22;6919;52.344;14.518;2023-03-29T04:15:11;-0.20;99.90
13694;DHT22;6919;52.344;14.518;2023-03-29T04:17:39;-0.20;99.90
13694;DHT22;6919;52.344;14.518;2023-03-29T04:20:09;-0.40;99.90
13694;DHT22;6919;52.344;14.518;2023-03-29T04:22:38;-0.30;99.90
13694;DHT22;6919;52.344;14.518;2023-03-29T04:25:08;-0.40;99.90
13694;DHT22;6919;52.344;14.518;2023-03-29T04:27:37;-0.60;99.90
13694;DHT22;6919;52.344;14.518;2023-03-29T04:30:07;-0.40;99.90
13694;DHT22;6919;52.344;14.518;2023-03-29T04:32:37;-0.50;99.90
13694;DHT22;6919;52.344;14.518;2023-03-29T04:35:05;-0.60;99.90
13694;DHT22;6919;52.344;14.518;2023-03-29T04:37:35;-0.40;99.90
13694;DHT22;6919;52.344;14.518;2023-03-29T04:40:06;-0.50;99.90
13694;DHT22;6919;52.344;14.518;2023-03-29T04:42:39;-0.50;99.90
13694;DHT22;6919;52.344;14.518;2023-03-29T04:45:10;-0.40;99.90
13694;DHT22;6919;52.344;14.518;2023-03-29T04:47:40;-0.50;99.90
13694;DHT22;6919;52.344;14.518;2023-03-29T04:50:09;-0.50;99.90
13694;DHT22;6919;52.344;14.518;2023-03-29T04:52:39;-0.40;99.90
13694;DHT22;6919;52.344;14.518;2023-03-29T04:55:09;-0.30;99.90
13694;DHT22;6919;52.344;14.518;2023-03-29T04:57:38;-0.30;99.90
13694;DHT22;6919;52.344;14.518;2023-03-29T05:00:08;-0.30;99.90
13694;DHT22;6919;52.344;14.518;2023-03-29T05:02:41;-0.40;99.90
13694;DHT22;6919;52.344;14.518;2023-03-29T05:05:10;-0.40;99.90
13694;DHT22;6919;52.344;14.518;2023-03-29T05:07:40;-0.30;99.90
13694;DHT22;6919;52.344;14.518;2023-03-29T05:10:09;-0.20;99.90
13694;DHT22;6919;52.344;14.518;2023-03-29T05:12:38;-0.30;99.90
13694;DHT22;6919;52.344;14.518;2023-03-29T05:15:07;-0.20;99.90
13694;DHT22;6919;52.344;14.518;2023-03-29T05:17:36;-0.20;99.90
13694;DHT22;6919;52.344;14.518;2023-03-29T05:20:06;-0.20;99.90
13694;DHT22;6919;52.344;14.518;2023-03-29T05:22:37;-0.10;99.90
13694;DHT22;6919;52.344;14.518;2023-03-29T05:25:08;-0.10;99.90
13694;DHT22;6919;52.344;14.518;2023-03-29T05:27:38;0.10;99.90
13694;DHT22;6919;52.344;14.518;2023-03-29T05:30:07;0.20;99.90
13694;DHT22;6919;52.344;14.518;2023-03-29T05:32:37;0.30;99.90
13694;DHT22;6919;52.344;14.518;2023-03-29T05:35:06;0.30;99.90
13694;DHT22;6919;52.344;14.518;2023-03-29T05:37:34;0.40;99.90
13694;DHT22;6919;52.344;14.518;2023-03-29T05:40:03;0.50;99.90
13694;DHT22;6919;52.344;14.518;2023-03-29T05:42:37;0.40;99.90
13694;DHT22;6919;52.344;14.518;2023-03-29T05:45:06;0.50;99.90
13694;DHT22;6919;52.344;14.518;2023-03-29T05:47:36;0.50;99.90
13694;DHT22;6919;52.344;14.518;2023-03-29T05:50:06;0.50;99.90
13694;DHT22;6919;52.344;14.518;2023-03-29T05:52:36;0.60;99.90
13694;DHT22;6919;52.344;14.518;2023-03-29T05:55:04;0.70;99.90
13694;DHT22;6919;52.344;14.518;2023-03-29T05:57:34;0.80;99.90
13694;DHT22;6919;52.344;14.518;2023-03-29T06:00:06;0.70;99.90
13694;DHT22;6919;52.344;14.518;2023-03-29T06:02:42;0.80;99.90
13694;DHT22;6919;52.344;14.518;2023-03-29T06:05:11;0.90;99.90
13694;DHT22;6919;52.344;14.518;2023-03-29T06:07:40;0.80;99.90
13694;DHT22;6919;52.344;14.518;2023-03-29T06:10:09;0.90;99.90
13694;DHT22;6919;52.344;14.518;2023-03-29T06:12:39;1.00;99.90
13694;DHT22;6919;52.344;14.518;2023-03-29T06:15:08;1.10;99.90
13694;DHT22;6919;52.344;14.518;2023-03-29T06:17:38;1.20;99.90
13694;DHT22;6919;52.344;14.518;2023-03-29T06:20:07;1.40;99.90
13694;DHT22;6919;52.344;14.518;2023-03-29T06:22:37;1.30;99.90
13694;DHT22;6919;52.344;14.518;2023-03-29T06:25:08;1.50;99.90
13694;DHT22;6919;52.344;14.518;2023-03-29T06:27:39;1.50;99.90
13694;DHT22;6919;52.344;14.518;2023-03-29T06:30:08;1.60;99.90
13694;DHT22;6919;52.344;14.518;2023-03-29T06:32:37;1.90;99.90
13694;DHT22;6919;52.344;14.518;2023-03-29T06:35:06;2.10;99.90
13694;DHT22;6919;52.344;14.518;2023-03-29T06:37:36;2.20;99.90
13694;DHT22;6919;52.344;14.518;2023-03-29T06:40:07;2.20;99.90
13694;DHT22;6919;52.344;14.518;2023-03-29T06:42:36;2.20;99.90
13694;DHT22;6919;52.344;14.518;2023-03-29T06:45:07;2.20;99.90
13694;DHT22;6919;52.344;14.518;2023-03-29T06:47:36;2.40;99.90
13694;DHT22;6919;52.344;14.518;2023-03-29T06:50:05;2.50;99.90
13694;DHT22;6919;52.344;14.518;2023-03-29T06:52:34;2.50;99.90
13694;DHT22;6919;52.344;14.518;2023-03-29T06:55:02;2.70;99.90
13694;DHT22;6919;52.344;14.518;2023-03-29T06:57:33;2.60;99.90
13694;DHT22;6919;52.344;14.518;2023-03-29T07:00:01;2.70;99.90
13694;DHT22;6919;52.344;14.518;2023-03-29T07:02:42;2.80;99.90
13694;DHT22;6919;52.344;14.518;2023-03-29T07:05:12;2.80;99.90
13694;DHT22;6919;52.344;14.518;2023-03-29T07:07:43;3.00;99.90
13694;DHT22;6919;52.344;14.518;2023-03-29T07:10:23;3.00;99.90
13694;DHT22;6919;52.344;14.518;2023-03-29T07:12:53;3.20;99.90
13694;DHT22;6919;52.344;14.518;2023-03-29T07:15:22;3.40;99.90
13694;DHT22;6919;52.344;14.518;2023-03-29T07:17:52;3.50;99.90
13694;DHT22;6919;52.344;14.518;2023-03-29T07:20:24;3.60;99.90
13694;DHT22;6919;52.344;14.518;2023-03-29T07:22:52;3.50;99.90
13694;DHT22;6919;52.344;14.518;2023-03-29T07:25:22;3.50;99.90
13694;DHT22;6919;52.344;14.518;2023-03-29T07:27:51;3.70;99.90
13694;DHT22;6919;52.344;14.518;2023-03-29T07:30:22;4.00;99.90
13694;DHT22;6919;52.344;14.518;2023-03-29T07:32:58;4.00;99.90
13694;DHT22;6919;52.344;14.518;2023-03-29T07:35:27;4.10;99.90
13694;DHT22;6919;52.344;14.518;2023-03-29T07:37:56;4.40;99.90
13694;DHT22;6919;52.344;14.518;2023-03-29T07:40:24;4.40;99.90
13694;DHT22;6919;52.344;14.518;2023-03-29T07:42:54;4.60;99.90
13694;DHT22;6919;52.344;14.518;2023-03-29T07:45:25;4.90;99.90
13694;DHT22;6919;52.344;14.518;2023-03-29T07:47:58;5.10;99.90
13694;DHT22;6919;52.344;14.518;2023-03-29T07:50:27;5.20;99.90
13694;DHT22;6919;52.344;14.518;2023-03-29T07:52:58;5.30;99.90
13694;DHT22;6919;52.344;14.518;2023-03-29T07:55:27;5.30;99.90
13694;DHT22;6919;52.344;14.518;2023-03-29T07:57:56;5.50;99.90
13694;DHT22;6919;52.344;14.518;2023-03-29T08:00:24;5.60;99.90
13694;DHT22;6919;52.344;14.518;2023-03-29T08:02:53;5.80;99.90
13694;DHT22;6919;52.344;14.518;2023-03-29T08:05:24;6.00;99.90
13694;DHT22;6919;52.344;14.518;2023-03-29T08:08:07;5.90;99.90
13694;DHT22;6919;52.344;14.518;2023-03-29T08:10:36;6.10;99.90
13694;DHT22;6919;52.344;14.518;2023-03-29T08:13:06;6.20;99.90
13694;DHT22;6919;52.344;14.518;2023-03-29T08:15:37;6.40;99.90
13694;DHT22;6919;52.344;14.518;2023-03-29T08:18:07;6.60;99.90
13694;DHT22;6919;52.344;14.518;2023-03-29T08:20:37;6.80;99.90
13694;DHT22;6919;52.344;14.518;2023-03-29T08:23:05;6.80;99.90
13694;DHT22;6919;52.344;14.518;2023-03-29T08:25:33;7.00;99.90
13694;DHT22;6919;52.344;14.518;2023-03-29T08:28:02;7.20;99.90
13694;DHT22;6919;52.344;14.518;2023-03-29T08:30:31;7.10;99.90
13694;DHT22;6919;52.344;14.518;2023-03-29T08:32:59;7.30;99.90
13694;DHT22;6919;52.344;14.518;2023-03-29T08:35:27;7.60;99.90
13694;DHT22;6919;52.344;14.518;2023-03-29T08:37:57;7.70;99.90
13694;DHT22;6919;52.344;14.518;2023-03-29T08:40:27;7.50;99.90
13694;DHT22;6919;52.344;14.518;2023-03-29T08:43:08;7.50;99.90
13694;DHT22;6919;52.344;14.518;2023-03-29T08:45:56;7.60;99.90
13694;DHT22;6919;52.344;14.518;2023-03-29T08:48:31;7.50;99.90
13694;DHT22;6919;52.344;14.518;2023-03-29T08:51:04;7.60;99.90
13694;DHT22;6919;52.344;14.518;2023-03-29T08:53:42;7.70;99.90
13694;DHT22;6919;52.344;14.518;2023-03-29T08:56:20;7.90;99.90
13694;DHT22;6919;52.344;14.518;2023-03-29T08:58:53;7.90;99.90
13694;DHT22;6919;52.344;14.518;2023-03-29T09:01:27;8.00;99.90
13694;DHT22;6919;52.344;14.518;2023-03-29T09:04:03;8.20;99.90
13694;DHT22;6919;52.344;14.518;2023-03-29T09:06:34;8.20;99.90
13694;DHT22;6919;52.344;14.518;2023-03-29T09:09:13;8.00;99.90
13694;DHT22;6919;52.344;14.518;2023-03-29T09:11:56;8.00;99.90
13694;DHT22;6919;52.344;14.518;2023-03-29T09:14:42;8.20;99.90
13694;DHT22;6919;52.344;14.518;2023-03-29T09:17:28;8.30;99.90
13694;DHT22;6919;52.344;14.518;2023-03-29T09:20:10;8.40;99.90
13694;DHT22;6919;52.344;14.518;2023-03-29T09:22:53;8.30;99.90
13694;DHT22;6919;52.344;14.518;2023-03-29T09:25:40;8.30;99.90
13694;DHT22;6919;52.344;14.518;2023-03-29T09:28:26;8.10;99.90
13694;DHT22;6919;52.344;14.518;2023-03-29T09:31:05;8.10;99.90
13694;DHT22;6919;52.344;14.518;2023-03-29T09:33:43;8.20;99.90
13694;DHT22;6919;52.344;14.518;2023-03-29T09:36:19;8.10;99.90
13694;DHT22;6919;52.344;14.518;2023-03-29T09:38:51;8.10;99.90
13694;DHT22;6919;52.344;14.518;2023-03-29T09:41:26;8.20;99.90
13694;DHT22;6919;52.344;14.518;2023-03-29T09:44:02;8.30;99.90
13694;DHT22;6919;52.344;14.518;2023-03-29T09:46:53;8.60;99.90
13694;DHT22;6919;52.344;14.518;2023-03-29T09:49:27;8.70;99.90
13694;DHT22;6919;52.344;14.518;2023-03-29T09:52:00;8.70;99.90
13694;DHT22;6919;52.344;14.518;2023-03-29T09:54:33;8.40;99.90
13694;DHT22;6919;52.344;14.518;2023-03-29T09:57:03;8.70;99.90
13694;DHT22;6919;52.344;14.518;2023-03-29T09:59:31;8.90;99.90
13694;DHT22;6919;52.344;14.518;2023-03-29T10:02:05;9.10;99.90
13694;DHT22;6919;52.344;14.518;2023-03-29T10:04:35;9.30;99.90
13694;DHT22;6919;52.344;14.518;2023-03-29T10:07:05;8.90;99.90
13694;DHT22;6919;52.344;14.518;2023-03-29T10:09:34;8.70;99.90
13694;DHT22;6919;52.344;14.518;2023-03-29T10:12:05;9.00;99.90
13694;DHT22;6919;52.344;14.518;2023-03-29T10:14:35;9.40;99.90
13694;DHT22;6919;52.344;14.518;2023-03-29T10:17:12;9.70;99.90
13694;DHT22;6919;52.344;14.518;2023-03-29T10:19:48;9.60;99.90
13694;DHT22;6919;52.344;14.518;2023-03-29T10:22:22;9.70;99.80
13694;DHT22;6919;52.344;14.518;2023-03-29T10:24:52;9.20;99.90
13694;DHT22;6919;52.344;14.518;2023-03-29T10:27:25;9.20;99.90
13694;DHT22;6919;52.344;14.518;2023-03-29T10:29:56;9.10;99.90
13694;DHT22;6919;52.344;14.518;2023-03-29T10:32:30;9.10;99.90
13694;DHT22;6919;52.344;14.518;2023-03-29T10:35:06;9.40;99.90
13694;DHT22;6919;52.344;14.518;2023-03-29T10:37:39;9.80;98.10
13694;DHT22;6919;52.344;14.518;2023-03-29T10:40:18;10.00;97.40
13694;DHT22;6919;52.344;14.518;2023-03-29T10:42:50;10.30;92.50
13694;DHT22;6919;52.344;14.518;2023-03-29T10:45:24;10.00;89.00
13694;DHT22;6919;52.344;14.518;2023-03-29T10:47:55;10.00;92.60
13694;DHT22;6919;52.344;14.518;2023-03-29T10:50:30;10.40;91.40
13694;DHT22;6919;52.344;14.518;2023-03-29T10:53:01;10.70;89.80
13694;DHT22;6919;52.344;14.518;2023-03-29T10:55:35;10.60;86.00
13694;DHT22;6919;52.344;14.518;2023-03-29T10:58:25;10.60;86.20
13694;DHT22;6919;52.344;14.518;2023-03-29T11:01:02;10.50;86.10
13694;DHT22;6919;52.344;14.518;2023-03-29T11:03:58;10.30;88.90
13694;DHT22;6919;52.344;14.518;2023-03-29T11:06:41;10.40;92.80
13694;DHT22;6919;52.344;14.518;2023-03-29T11:09:22;10.60;88.10
13694;DHT22;6919;52.344;14.518;2023-03-29T11:12:09;10.80;76.50
13694;DHT22;6919;52.344;14.518;2023-03-29T11:14:54;11.10;74.10
13694;DHT22;6919;52.344;14.518;2023-03-29T11:17:45;10.90;72.50
13694;DHT22;6919;52.344;14.518;2023-03-29T11:20:33;10.80;74.20
13694;DHT22;6919;52.344;14.518;2023-03-29T11:23:21;10.80;73.20
13694;DHT22;6919;52.344;14.518;2023-03-29T11:26:10;11.00;73.00
13694;DHT22;6919;52.344;14.518;2023-03-29T11:28:48;11.20;71.40
13694;DHT22;6919;52.344;14.518;2023-03-29T11:31:30;11.00;69.80
13694;DHT22;6919;52.344;14.518;2023-03-29T11:34:20;10.50;78.80
13694;DHT22;6919;52.344;14.518;2023-03-29T11:36:59;10.60;82.30
13694;DHT22;6919;52.344;14.518;2023-03-29T11:39:43;11.00;82.80
13694;DHT22;6919;52.344;14.518;2023-03-29T11:42:23;11.40;77.30
13694;DHT22;6919;52.344;14.518;2023-03-29T11:44:56;11.40;75.20
13694;DHT22;6919;52.344;14.518;2023-03-29T11:47:31;11.30;76.00
13694;DHT22;6919;52.344;14.518;2023-03-29T11:50:05;11.30;76.10
13694;DHT22;6919;52.344;14.518;2023-03-29T11:52:45;11.30;79.10
13694;DHT22;6919;52.344;14.518;2023-03-29T11:55:20;11.30;79.30
13694;DHT22;6919;52.344;14.518;2023-03-29T11:57:54;11.30;81.20
13694;DHT22;6919;52.344;14.518;2023-03-29T12:00:29;11.10;80.90
13694;DHT22;6919;52.344;14.518;2023-03-29T12:03:09;11.00;86.20
13694;DHT22;6919;52.344;14.518;2023-03-29T12:05:44;11.20;86.60
13694;DHT22;6919;52.344;14.518;2023-03-29T12:08:19;10.90;90.20
13694;DHT22;6919;52.344;14.518;2023-03-29T12:10:56;11.00;92.20
13694;DHT22;6919;52.344;14.518;2023-03-29T12:13:33;11.00;91.70
13694;DHT22;6919;52.344;14.518;2023-03-29T12:16:12;10.80;96.50
13694;DHT22;6919;52.344;14.518;2023-03-29T12:18:48;10.90;98.30
13694;DHT22;6919;52.344;14.518;2023-03-29T12:21:21;11.10;95.90
13694;DHT22;6919;52.344;14.518;2023-03-29T12:23:51;11.10;95.50
13694;DHT22;6919;52.344;14.518;2023-03-29T12:26:38;11.30;97.20
13694;DHT22;6919;52.344;14.518;2023-03-29T12:29:35;11.50;93.70
13694;DHT22;6919;52.344;14.518;2023-03-29T12:32:28;11.50;91.60
13694;DHT22;6919;52.344;14.518;2023-03-29T12:35:21;11.10;94.40
13694;DHT22;6919;52.344;14.518;2023-03-29T12:38:05;10.70;97.70
13694;DHT22;6919;52.344;14.518;2023-03-29T12:40:44;11.00;97.30
13694;DHT22;6919;52.344;14.518;2023-03-29T12:43:21;10.60;99.90
13694;DHT22;6919;52.344;14.518;2023-03-29T12:45:54;10.20;99.90
13694;DHT22;6919;52.344;14.518;2023-03-29T12:48:26;10.20;99.90
13694;DHT22;6919;52.344;14.518;2023-03-29T12:51:00;10.20;99.90
13694;DHT22;6919;52.344;14.518;2023-03-29T12:53:32;10.20;99.90
13694;DHT22;6919;52.344;14.518;2023-03-29T12:56:12;10.40;99.90
13694;DHT22;6919;52.344;14.518;2023-03-29T12:58:54;10.60;99.90
13694;DHT22;6919;52.344;14.518;2023-03-29T13:01:35;11.20;99.90
13694;DHT22;6919;52.344;14.518;2023-03-29T13:04:16;11.60;97.40
13694;DHT22;6919;52.344;14.518;2023-03-29T13:06:59;11.80;94.00
13694;DHT22;6919;52.344;14.518;2023-03-29T13:09:47;11.40;93.60
13694;DHT22;6919;52.344;14.518;2023-03-29T13:12:23;10.80;98.70
13694;DHT22;6919;52.344;14.518;2023-03-29T13:14:56;10.70;99.90
13694;DHT22;6919;52.344;14.518;2023-03-29T13:17:35;11.00;99.90
13694;DHT22;6919;52.344;14.518;2023-03-29T13:20:28;11.30;96.60
13694;DHT22;6919;52.344;14.518;2023-03-29T13:23:21;11.20;98.20
13694;DHT22;6919;52.344;14.518;2023-03-29T13:26:12;11.10;99.10
13694;DHT22;6919;52.344;14.518;2023-03-29T13:32:17;10.70;99.90
13694;DHT22;6919;52.344;14.518;2023-03-29T13:35:14;10.50;99.90
13694;DHT22;6919;52.344;14.518;2023-03-29T13:37:58;10.20;99.90
13694;DHT22;6919;52.344;14.518;2023-03-29T13:40:45;10.30;99.90
13694;DHT22;6919;52.344;14.518;2023-03-29T13:43:30;10.50;99.90
13694;DHT22;6919;52.344;14.518;2023-03-29T13:46:20;10.70;99.90
13694;DHT22;6919;52.344;14.518;2023-03-29T13:49:02;11.10;99.90
13694;DHT22;6919;52.344;14.518;2023-03-29T13:51:37;10.90;99.90
13694;DHT22;6919;52.344;14.518;2023-03-29T13:54:25;10.90;99.90
13694;DHT22;6919;52.344;14.518;2023-03-29T13:57:07;11.10;99.90
13694;DHT22;6919;52.344;14.518;2023-03-29T13:59:46;11.20;99.90
13694;DHT22;6919;52.344;14.518;2023-03-29T14:02:24;11.20;99.90
13694;DHT22;6919;52.344;14.518;2023-03-29T14:05:10;11.20;99.90
13694;DHT22;6919;52.344;14.518;2023-03-29T14:07:43;11.00;99.90
13694;DHT22;6919;52.344;14.518;2023-03-29T14:10:18;10.90;99.90
13694;DHT22;6919;52.344;14.518;2023-03-29T14:12:53;11.20;99.90
13694;DHT22;6919;52.344;14.518;2023-03-29T14:15:24;11.10;99.90
13694;DHT22;6919;52.344;14.518;2023-03-29T14:17:55;10.70;99.90
13694;DHT22;6919;52.344;14.518;2023-03-29T14:20:27;10.80;99.90
13694;DHT22;6919;52.344;14.518;2023-03-29T14:22:58;11.10;99.90
13694;DHT22;6919;52.344;14.518;2023-03-29T14:25:28;11.10;99.90
13694;DHT22;6919;52.344;14.518;2023-03-29T14:27:59;11.20;99.90
13694;DHT22;6919;52.344;14.518;2023-03-29T14:30:28;11.20;99.90
13694;DHT22;6919;52.344;14.518;2023-03-29T14:32:59;11.50;99.90
13694;DHT22;6919;52.344;14.518;2023-03-29T14:35:31;11.20;99.90
13694;DHT22;6919;52.344;14.518;2023-03-29T14:38:00;11.10;99.90
13694;DHT22;6919;52.344;14.518;2023-03-29T14:40:29;10.80;99.90
13694;DHT22;6919;52.344;14.518;2023-03-29T14:43:03;10.60;99.90
13694;DHT22;6919;52.344;14.518;2023-03-29T14:45:34;10.60;99.90
13694;DHT22;6919;52.344;14.518;2023-03-29T14:48:03;10.20;99.90
13694;DHT22;6919;52.344;14.518;2023-03-29T14:50:33;10.20;99.90
13694;DHT22;6919;52.344;14.518;2023-03-29T14:53:04;10.00;99.90
13694;DHT22;6919;52.344;14.518;2023-03-29T14:55:34;10.10;99.90
13694;DHT22;6919;52.344;14.518;2023-03-29T14:58:18;10.40;99.90
13694;DHT22;6919;52.344;14.518;2023-03-29T15:00:50;10.10;99.90
13694;DHT22;6919;52.344;14.518;2023-03-29T15:03:19;10.00;99.90
13694;DHT22;6919;52.344;14.518;2023-03-29T15:05:55;10.60;99.90
13694;DHT22;6919;52.344;14.518;2023-03-29T15:08:29;10.10;99.90
13694;DHT22;6919;52.344;14.518;2023-03-29T15:11:00;10.30;99.90
13694;DHT22;6919;52.344;14.518;2023-03-29T15:13:31;10.20;99.90
13694;DHT22;6919;52.344;14.518;2023-03-29T15:16:00;10.30;99.90
13694;DHT22;6919;52.344;14.518;2023-03-29T15:18:36;10.10;99.90
13694;DHT22;6919;52.344;14.518;2023-03-29T15:21:06;10.30;99.90
13694;DHT22;6919;52.344;14.518;2023-03-29T15:23:37;10.40;99.90
13694;DHT22;6919;52.344;14.518;2023-03-29T15:26:12;10.40;99.90
13694;DHT22;6919;52.344;14.518;2023-03-29T15:28:47;10.50;99.90
13694;DHT22;6919;52.344;14.518;2023-03-29T15:31:24;10.50;99.90
13694;DHT22;6919;52.344;14.518;2023-03-29T15:34:01;10.30;99.90
13694;DHT22;6919;52.344;14.518;2023-03-29T15:36:38;10.30;99.90
13694;DHT22;6919;52.344;14.518;2023-03-29T15:39:11;10.30;99.90
13694;DHT22;6919;52.344;14.518;2023-03-29T15:41:41;10.10;99.90
13694;DHT22;6919;52.344;14.518;2023-03-29T15:44:14;9.90;99.90
13694;DHT22;6919;52.344;14.518;2023-03-29T15:46:44;9.90;99.90
13694;DHT22;6919;52.344;14.518;2023-03-29T15:49:13;9.90;99.90
13694;DHT22;6919;52.344;14.518;2023-03-29T15:51:41;10.00;99.90
13694;DHT22;6919;52.344;14.518;2023-03-29T15:54:10;10.10;99.90
13694;DHT22;6919;52.344;14.518;2023-03-29T15:56:43;10.20;99.90
13694;DHT22;6919;52.344;14.518;2023-03-29T15:59:16;10.30;99.90
13694;DHT22;6919;52.344;14.518;2023-03-29T16:01:45;10.30;99.90
13694;DHT22;6919;52.344;14.518;2023-03-29T16:04:16;10.30;99.90
13694;DHT22;6919;52.344;14.518;2023-03-29T16:06:49;10.40;99.90
13694;DHT22;6919;52.344;14.518;2023-03-29T16:09:20;10.40;99.90
13694;DHT22;6919;52.344;14.518;2023-03-29T16:11:49;10.20;99.90
13694;DHT22;6919;52.344;14.518;2023-03-29T16:14:21;10.10;99.90
13694;DHT22;6919;52.344;14.518;2023-03-29T16:16:51;10.10;99.90
13694;DHT22;6919;52.344;14.518;2023-03-29T16:19:22;10.10;99.90
13694;DHT22;6919;52.344;14.518;2023-03-29T16:21:52;10.10;99.90
13694;DHT22;6919;52.344;14.518;2023-03-29T16:24:23;10.20;99.90